createdAt,value
2019-02-23T00:02:12.128Z,96596.51
2019-02-23T00:04:38.570Z,96601.37
2019-02-23T00:07:04.996Z,96602.94
2019-02-23T00:09:31.411Z,96587.88
2019-02-23T00:11:57.833Z,96587.95
2019-02-23T00:14:24.257Z,96593.97
2019-02-23T00:16:50.714Z,96589.39
2019-02-23T00:19:24.443Z,96591.69
2019-02-23T00:21:45.468Z,96593.30
2019-02-23T00:24:12.048Z,96592.33
2019-02-23T00:26:38.517Z,96593.62
2019-02-23T00:29:04.934Z,96585.19
2019-02-23T00:31:31.355Z,96588.44
2019-02-23T00:33:57.822Z,96583.05
2019-02-23T00:36:24.382Z,96582.24
2019-02-23T00:38:50.804Z,96580.97
2019-02-23T00:41:17.227Z,96572.36
2019-02-23T00:43:43.650Z,96567.00
2019-02-23T00:46:10.101Z,96576.73
2019-02-23T00:48:36.523Z,96580.95
2019-02-23T00:51:02.949Z,96590.63
2019-02-23T00:53:29.364Z,96600.61
2019-02-23T00:55:55.862Z,96600.63
2019-02-23T00:58:22.283Z,96599.73
2019-02-23T01:00:48.705Z,96587.30
2019-02-23T01:03:15.221Z,96596.66
2019-02-23T01:05:42.018Z,96597.86
2019-02-23T01:08:08.924Z,96594.71
2019-02-23T01:10:35.759Z,96596.73
2019-02-23T01:13:02.548Z,96598.39
2019-02-23T01:15:29.029Z,96597.38
2019-02-23T01:17:55.490Z,96594.19
2019-02-23T01:20:22.035Z,96593.86
2019-02-23T01:22:48.458Z,96588.36
2019-02-23T01:25:14.969Z,96601.83
2019-02-23T01:27:41.460Z,96597.44
2019-02-23T01:30:09.078Z,96598.53
2019-02-23T01:32:35.598Z,96602.56
2019-02-23T01:35:02.126Z,96600.30
2019-02-23T01:37:28.630Z,96602.66
2019-02-23T01:39:55.046Z,96603.66
2019-02-23T01:42:21.470Z,96596.72
2019-02-23T01:44:47.979Z,96591.71
2019-02-23T01:47:14.407Z,96590.62
2019-02-23T01:49:40.925Z,96601.00
2019-02-23T01:52:07.344Z,96603.34
2019-02-23T01:54:33.913Z,96598.06
2019-02-23T01:57:00.640Z,96595.73
2019-02-23T01:59:27.127Z,96596.56
2019-02-23T02:01:53.545Z,96591.06
2019-02-23T02:04:19.961Z,96588.21
2019-02-23T02:06:46.380Z,96589.50
2019-02-23T02:09:12.901Z,96594.67
2019-02-23T02:11:39.423Z,96593.74
2019-02-23T02:14:06.145Z,96589.96
2019-02-23T02:16:32.842Z,96594.86
2019-02-23T02:18:59.323Z,96592.69
2019-02-23T02:21:25.743Z,96585.36
2019-02-23T02:23:52.166Z,96580.91
2019-02-23T02:26:18.700Z,96583.80
2019-02-23T02:28:45.109Z,96589.42
2019-02-23T02:31:11.564Z,96586.35
2019-02-23T02:34:04.279Z,96588.70
2019-02-23T02:36:30.851Z,96584.19
2019-02-23T02:38:57.271Z,96584.82
2019-02-23T02:41:23.692Z,96578.78
2019-02-23T02:43:50.313Z,96581.52
2019-02-23T02:46:16.773Z,96579.56
2019-02-23T02:48:43.182Z,96581.66
2019-02-23T02:51:09.603Z,96576.82
2019-02-23T02:53:36.026Z,96580.19
2019-02-23T02:56:02.515Z,96574.54
2019-02-23T02:58:28.934Z,96571.86
2019-02-23T03:00:55.414Z,96577.66
2019-02-23T03:03:21.839Z,96575.38
2019-02-23T03:05:48.338Z,96570.23
2019-02-23T03:08:14.764Z,96579.56
2019-02-23T03:10:41.186Z,96577.00
2019-02-23T03:13:07.607Z,96574.39
2019-02-23T03:15:34.044Z,96576.98
2019-02-23T03:18:00.555Z,96576.28
2019-02-23T03:20:36.348Z,96575.12
2019-02-23T03:22:55.310Z,96574.16
2019-02-23T03:25:21.767Z,96573.27
2019-02-23T03:27:48.184Z,96568.52
2019-02-23T03:30:14.721Z,96572.54
2019-02-23T03:32:41.275Z,96577.74
2019-02-23T03:35:07.993Z,96577.48
2019-02-23T03:37:34.484Z,96573.42
2019-02-23T03:40:00.913Z,96570.81
2019-02-23T03:42:27.336Z,96564.58
2019-02-23T03:44:53.841Z,96575.02
2019-02-23T03:47:20.303Z,96578.22
2019-02-23T03:49:46.730Z,96581.97
2019-02-23T03:52:13.154Z,96586.54
2019-02-23T03:54:39.877Z,96578.09
2019-02-23T03:57:06.395Z,96584.14
2019-02-23T03:59:32.812Z,96586.91
2019-02-23T04:01:59.319Z,96589.05
2019-02-23T04:04:25.738Z,96589.94
2019-02-23T04:06:52.157Z,96593.95
2019-02-23T04:09:18.651Z,96596.13
2019-02-23T04:11:45.100Z,96592.63
2019-02-23T04:14:11.523Z,96588.41
2019-02-23T04:16:38.093Z,96586.39
2019-02-23T04:19:04.550Z,96584.57
2019-02-23T04:21:30.968Z,96587.65
2019-02-23T04:23:57.391Z,96589.44
2019-02-23T04:26:23.924Z,96586.79
2019-02-23T04:28:50.341Z,96592.55
2019-02-23T04:31:16.861Z,96588.83
2019-02-23T04:33:43.321Z,96580.97
2019-02-23T04:36:09.983Z,96584.70
2019-02-23T04:38:36.453Z,96578.42
2019-02-23T04:41:02.972Z,96580.30
2019-02-23T04:43:29.506Z,96577.55
2019-02-23T04:45:56.009Z,96573.20
2019-02-23T04:48:22.439Z,96570.41
2019-02-23T04:50:48.873Z,96577.27
2019-02-23T04:53:15.292Z,96575.03
2019-02-23T04:55:41.746Z,96576.86
2019-02-23T04:58:08.163Z,96576.42
2019-02-23T05:00:34.595Z,96569.41
2019-02-23T05:03:01.060Z,96566.87
2019-02-23T05:05:27.774Z,96571.69
2019-02-23T05:07:54.245Z,96579.41
2019-02-23T05:10:20.665Z,96576.20
2019-02-23T05:12:47.083Z,96578.77
2019-02-23T05:15:13.524Z,96582.07
2019-02-23T05:17:39.952Z,96588.02
2019-02-23T05:20:06.751Z,96583.53
2019-02-23T05:22:33.169Z,96582.89
2019-02-23T05:24:59.678Z,96573.00
2019-02-23T05:27:26.086Z,96570.64
2019-02-23T05:29:52.524Z,96572.89
2019-02-23T05:32:18.942Z,96569.88
2019-02-23T05:34:45.396Z,96572.48
2019-02-23T05:37:11.886Z,96570.73
2019-02-23T05:39:38.307Z,96570.38
2019-02-23T05:42:04.814Z,96574.47
2019-02-23T05:44:31.339Z,96573.33
2019-02-23T05:46:57.872Z,96564.84
2019-02-23T05:49:24.285Z,96563.13
2019-02-23T05:51:50.826Z,96564.82
2019-02-23T05:54:17.254Z,96566.34
2019-02-23T05:56:43.691Z,96560.34
2019-02-23T05:59:10.123Z,96550.67
2019-02-23T06:01:36.555Z,96553.13
2019-02-23T06:04:03.088Z,96558.25
2019-02-23T06:06:29.668Z,96556.70
2019-02-23T06:08:56.123Z,96557.64
2019-02-23T06:11:22.546Z,96555.91
2019-02-23T06:13:48.965Z,96560.22
2019-02-23T06:16:15.487Z,96555.80
2019-02-23T06:18:41.911Z,96559.28
2019-02-23T06:21:08.374Z,96557.35
2019-02-23T06:23:34.804Z,96554.83
2019-02-23T06:26:01.264Z,96557.94
2019-02-23T06:28:27.669Z,96556.12
2019-02-23T06:30:54.090Z,96555.54
2019-02-23T06:33:20.530Z,96558.48
2019-02-23T06:35:46.951Z,96559.09
2019-02-23T06:38:13.441Z,96552.08
2019-02-23T06:40:39.885Z,96563.35
2019-02-23T06:43:06.319Z,96561.30
2019-02-23T06:45:32.779Z,96572.19
2019-02-23T06:47:59.223Z,96562.44
2019-02-23T06:50:25.651Z,96567.45
2019-02-23T06:52:52.076Z,96569.08
2019-02-23T06:55:18.522Z,96570.99
2019-02-23T06:57:44.953Z,96566.08
2019-02-23T07:00:13.586Z,96576.20
2019-02-23T07:02:40.118Z,96568.56
2019-02-23T07:05:06.633Z,96568.61
2019-02-23T07:07:33.059Z,96571.86
2019-02-23T07:09:59.682Z,96574.30
2019-02-23T07:12:26.120Z,96573.10
2019-02-23T07:14:52.656Z,96574.18
2019-02-23T07:17:19.073Z,96578.27
2019-02-23T07:19:45.499Z,96576.48
2019-02-23T07:22:15.466Z,96586.29
2019-02-23T07:24:40.347Z,96579.98
2019-02-23T07:27:06.771Z,96580.65
2019-02-23T07:29:33.218Z,96576.02
2019-02-23T07:31:59.650Z,96585.47
2019-02-23T07:34:26.074Z,96580.19
2019-02-23T07:36:52.498Z,96580.84
2019-02-23T07:39:19.027Z,96585.17
2019-02-23T07:41:45.484Z,96584.70
2019-02-23T07:44:11.905Z,96577.97
2019-02-23T07:46:38.425Z,96579.19
2019-02-23T07:49:04.899Z,96583.20
2019-02-23T07:51:31.321Z,96585.56
2019-02-23T07:53:57.782Z,96583.61
2019-02-23T07:56:24.282Z,96583.61
2019-02-23T07:58:50.722Z,96581.32
2019-02-23T08:01:38.983Z,96576.93
2019-02-23T08:03:53.198Z,96582.48
2019-02-23T08:06:19.795Z,96570.80
2019-02-23T08:08:46.478Z,96570.22
2019-02-23T08:11:12.960Z,96573.79
2019-02-23T08:13:40.706Z,96572.31
2019-02-23T08:16:07.550Z,96570.52
2019-02-23T08:18:34.075Z,96568.67
2019-02-23T08:21:00.513Z,96568.50
2019-02-23T08:23:27.034Z,96568.77
2019-02-23T08:25:53.563Z,96564.60
2019-02-23T08:28:21.919Z,96566.47
2019-02-23T08:30:48.340Z,96559.91
2019-02-23T08:33:14.758Z,96564.87
2019-02-23T08:35:41.266Z,96565.73
2019-02-23T08:38:07.743Z,96567.83
2019-02-23T08:40:34.190Z,96565.28
2019-02-23T08:43:00.609Z,96557.19
2019-02-23T08:45:27.238Z,96569.16
2019-02-23T08:47:56.283Z,96570.80
2019-02-23T08:50:22.065Z,96562.43
2019-02-23T08:52:50.327Z,96566.52
2019-02-23T08:55:16.932Z,96568.75
2019-02-23T08:57:43.358Z,96574.05
2019-02-23T09:00:15.723Z,96580.25
2019-02-23T09:02:42.241Z,96562.47
2019-02-23T09:05:09.798Z,96561.17
2019-02-23T09:07:36.292Z,96566.38
2019-02-23T09:10:04.116Z,96561.98
2019-02-23T09:12:30.538Z,96566.00
2019-02-23T09:14:56.983Z,96577.02
2019-02-23T09:17:23.481Z,96571.54
2019-02-23T09:19:50.016Z,96572.86
2019-02-23T09:22:16.438Z,96577.50
2019-02-23T09:24:43.002Z,96578.35
2019-02-23T09:27:09.428Z,96576.10
2019-02-23T09:29:35.861Z,96570.91
2019-02-23T09:32:02.281Z,96579.51
2019-02-23T09:34:28.693Z,96573.21
2019-02-23T09:36:55.122Z,96573.83
2019-02-23T09:39:21.541Z,96578.37
2019-02-23T09:41:47.962Z,96592.66
2019-02-23T09:44:14.435Z,96588.75
2019-02-23T09:46:40.926Z,96594.59
2019-02-23T09:49:07.382Z,96597.50
2019-02-23T09:51:33.814Z,96595.25
2019-02-23T09:54:00.254Z,96593.31
2019-02-23T09:56:27.683Z,96595.56
2019-02-23T09:58:54.117Z,96604.68
2019-02-23T10:01:20.541Z,96603.04
2019-02-23T10:03:46.962Z,96610.16
2019-02-23T10:06:13.520Z,96614.05
2019-02-23T10:08:40.029Z,96605.63
2019-02-23T10:11:06.545Z,96607.56
2019-02-23T10:13:32.970Z,96608.23
2019-02-23T10:15:59.485Z,96611.45
2019-02-23T10:18:25.967Z,96607.91
2019-02-23T10:20:52.387Z,96604.67
2019-02-23T10:23:21.913Z,96609.52
2019-02-23T10:25:47.322Z,96606.94
2019-02-23T10:28:13.748Z,96607.26
2019-02-23T10:30:40.169Z,96607.59
2019-02-23T10:33:06.597Z,96604.34
2019-02-23T10:35:33.078Z,96611.70
2019-02-23T10:37:59.619Z,96601.37
2019-02-23T10:40:26.042Z,96602.53
2019-02-23T10:42:52.484Z,96605.30
2019-02-23T10:45:19.045Z,96617.02
2019-02-23T10:47:45.465Z,96623.77
2019-02-23T10:50:13.632Z,96616.64
2019-02-23T10:52:40.159Z,96624.78
2019-02-23T10:55:13.635Z,96622.34
2019-02-23T10:57:40.053Z,96629.64
2019-02-23T11:00:11.681Z,96619.20
2019-02-23T11:02:38.103Z,96623.09
2019-02-23T11:05:06.466Z,96613.56
2019-02-23T11:07:32.890Z,96616.67
2019-02-23T11:09:59.317Z,96615.03
2019-02-23T11:12:25.742Z,96625.42
2019-02-23T11:14:52.194Z,96623.48
2019-02-23T11:17:18.616Z,96609.21
2019-02-23T11:19:45.111Z,96610.02
2019-02-23T11:22:11.625Z,96600.44
2019-02-23T11:24:38.134Z,96603.70
2019-02-23T11:27:04.596Z,96599.78
2019-02-23T11:29:31.034Z,96598.14
2019-02-23T11:31:57.462Z,96598.17
2019-02-23T11:34:23.975Z,96596.83
2019-02-23T11:36:50.412Z,96593.59
2019-02-23T11:39:16.833Z,96593.87
2019-02-23T11:41:43.263Z,96600.36
2019-02-23T11:44:09.685Z,96607.59
2019-02-23T11:46:36.135Z,96597.97
2019-02-23T11:49:02.557Z,96598.09
2019-02-23T11:51:29.047Z,96598.92
2019-02-23T11:53:55.515Z,96598.14
2019-02-23T11:56:22.149Z,96590.99
2019-02-23T11:58:48.604Z,96582.22
2019-02-23T12:01:15.173Z,96577.24
2019-02-23T12:03:41.671Z,96569.05
2019-02-23T12:06:08.120Z,96567.14
2019-02-23T12:08:34.541Z,96567.22
2019-02-23T12:11:00.969Z,96567.44
2019-02-23T12:13:27.386Z,96569.19
2019-02-23T12:15:53.853Z,96569.84
2019-02-23T12:18:20.269Z,96565.55
2019-02-23T12:20:46.690Z,96570.61
2019-02-23T12:23:13.184Z,96563.91
2019-02-23T12:25:39.738Z,96563.13
2019-02-23T12:28:06.276Z,96557.28
2019-02-23T12:30:32.936Z,96559.73
2019-02-23T12:32:59.434Z,96562.75
2019-02-23T12:35:25.937Z,96561.00
2019-02-23T12:37:52.369Z,96561.66
2019-02-23T12:40:18.788Z,96551.42
2019-02-23T12:42:45.518Z,96545.02
2019-02-23T12:45:12.790Z,96553.16
2019-02-23T12:47:39.223Z,96544.28
2019-02-23T12:50:08.775Z,96547.11
2019-02-23T12:52:35.180Z,96557.99
2019-02-23T12:55:01.743Z,96554.19
2019-02-23T12:57:28.163Z,96537.28
2019-02-23T12:59:54.686Z,96543.92
2019-02-23T13:02:21.256Z,96538.58
2019-02-23T13:04:47.860Z,96533.72
2019-02-23T13:07:14.287Z,96533.72
2019-02-23T13:09:42.032Z,96534.33
2019-02-23T13:12:12.046Z,96522.19
2019-02-23T13:14:58.920Z,96516.15
2019-02-23T13:17:44.264Z,96513.90
2019-02-23T13:20:32.615Z,96501.95
2019-02-23T13:23:28.484Z,96486.81
2019-02-23T13:26:04.659Z,96482.00
2019-02-23T13:28:40.519Z,96482.47
2019-02-23T13:31:16.395Z,96489.11
2019-02-23T13:34:03.015Z,96491.27
2019-02-23T13:36:45.026Z,96500.84
2019-02-23T13:39:21.090Z,96498.90
2019-02-23T13:41:51.153Z,96502.72
2019-02-23T13:44:36.242Z,96502.72
2019-02-23T13:47:15.343Z,96489.23
2019-02-23T13:50:03.715Z,96511.44
2019-02-23T13:52:42.705Z,96507.11
2019-02-23T13:55:17.672Z,96507.11
2019-02-23T13:57:47.705Z,96512.92
2019-02-23T14:00:23.637Z,96509.86
2019-02-23T14:02:59.728Z,96501.02
2019-02-23T14:05:46.802Z,96501.02
2019-02-23T14:08:35.146Z,96512.70
2019-02-23T14:11:23.549Z,96509.65
2019-02-23T14:13:53.598Z,96511.86
2019-02-23T14:16:41.899Z,96503.63
2019-02-23T14:19:18.134Z,96497.47
2019-02-23T14:22:12.186Z,96501.47
2019-02-23T14:24:50.024Z,96494.76
2019-02-23T14:27:23.196Z,96499.02
2019-02-23T14:29:53.310Z,96479.69
2019-02-23T14:32:26.403Z,96479.46
2019-02-23T14:35:11.734Z,96478.53
2019-02-23T14:37:50.982Z,96470.39
2019-02-23T14:40:36.359Z,96475.96
2019-02-23T14:43:09.624Z,96479.23
2019-02-23T14:45:50.458Z,96481.25
2019-02-23T14:48:23.182Z,96468.39
2019-02-23T14:51:26.595Z,96465.80
2019-02-23T14:53:59.648Z,96463.83
2019-02-23T14:56:39.035Z,96467.86
2019-02-23T14:59:18.161Z,96463.87
2019-02-23T15:01:51.224Z,96460.75
2019-02-23T15:04:27.461Z,96463.10
2019-02-23T15:07:00.427Z,96458.03
2019-02-23T15:09:33.605Z,96468.20
2019-02-23T15:12:25.053Z,96461.01
2019-02-23T15:14:57.946Z,96463.41
2019-02-23T15:18:01.406Z,96467.21
2019-02-23T15:20:43.621Z,96465.59
2019-02-23T15:23:33.208Z,96468.82
2019-02-23T15:26:33.574Z,96467.11
2019-02-23T15:29:18.621Z,96463.64
2019-02-23T15:32:03.491Z,96477.48
2019-02-23T15:34:52.015Z,96472.13
2019-02-23T15:37:43.238Z,96473.92
2019-02-23T15:40:25.481Z,96466.16
2019-02-23T15:43:10.622Z,96475.52
2019-02-23T15:45:49.755Z,96471.39
2019-02-23T15:48:19.925Z,96473.28
2019-02-23T15:50:46.475Z,96471.36
2019-02-23T15:53:12.967Z,96479.91
2019-02-23T15:55:39.522Z,96472.14
2019-02-23T15:58:06.055Z,96468.20
2019-02-23T16:00:34.929Z,96481.88
2019-02-23T16:03:00.962Z,96486.38
2019-02-23T16:05:27.530Z,96488.37
2019-02-23T16:07:53.970Z,96490.59
2019-02-23T16:10:20.677Z,96490.33
2019-02-23T16:12:47.548Z,96495.64
2019-02-23T16:15:14.212Z,96490.97
2019-02-23T16:17:40.942Z,96490.97
2019-02-23T16:20:07.475Z,96489.14
2019-02-23T16:22:33.902Z,96493.58
2019-02-23T16:25:00.439Z,96488.34
2019-02-23T16:27:26.967Z,96495.91
2019-02-23T16:29:53.500Z,96486.95
2019-02-23T16:32:20.279Z,96488.64
2019-02-23T16:34:46.763Z,96486.74
2019-02-23T16:37:13.193Z,96478.54
2019-02-23T16:39:40.569Z,96473.32
2019-02-23T16:42:07.296Z,96477.78
2019-02-23T16:44:33.832Z,96475.23
2019-02-23T16:47:00.384Z,96483.12
2019-02-23T16:49:26.925Z,96477.09
2019-02-23T16:51:53.338Z,96486.78
2019-02-23T16:54:19.914Z,96484.31
2019-02-23T16:56:46.394Z,96477.92
2019-02-23T16:59:12.827Z,96489.04
2019-02-23T17:01:39.253Z,96495.25
2019-02-23T17:04:06.270Z,96498.01
2019-02-23T17:06:33.045Z,96507.52
2019-02-23T17:08:59.581Z,96504.20
2019-02-23T17:11:26.116Z,96508.99
2019-02-23T17:13:52.554Z,96504.37
2019-02-23T17:16:19.002Z,96504.37
2019-02-23T17:18:45.432Z,96510.37
2019-02-23T17:21:11.978Z,96511.08
2019-02-23T17:23:38.502Z,96511.08
2019-02-23T17:26:05.054Z,96508.48
2019-02-23T17:28:31.557Z,96507.21
2019-02-23T17:30:57.979Z,96505.66
2019-02-23T17:33:27.787Z,96507.27
2019-02-23T17:35:52.874Z,96497.19
2019-02-23T17:38:19.295Z,96503.66
2019-02-23T17:40:45.869Z,96506.63
2019-02-23T17:43:12.468Z,96511.43
2019-02-23T17:45:38.989Z,96509.26
2019-02-23T17:48:05.547Z,96506.95
2019-02-23T17:50:32.198Z,96508.89
2019-02-23T17:52:58.631Z,96508.02
2019-02-23T17:55:25.152Z,96507.98
2019-02-23T17:57:51.672Z,96504.75
2019-02-23T18:00:19.903Z,96509.36
2019-02-23T18:02:46.476Z,96511.98
2019-02-23T18:05:13.102Z,96503.48
2019-02-23T18:07:39.735Z,96513.88
2019-02-23T18:10:06.267Z,96520.03
2019-02-23T18:12:32.678Z,96520.08
2019-02-23T18:14:59.154Z,96531.52
2019-02-23T18:17:25.581Z,96534.71
2019-02-23T18:19:52.017Z,96529.97
2019-02-23T18:22:18.527Z,96529.97
2019-02-23T18:24:44.987Z,96539.15
2019-02-23T18:27:11.412Z,96538.99
2019-02-23T18:29:37.888Z,96534.78
2019-02-23T18:32:04.286Z,96541.53
2019-02-23T18:34:31.896Z,96547.50
2019-02-23T18:36:58.764Z,96530.60
2019-02-23T18:39:25.660Z,96528.44
2019-02-23T18:41:52.078Z,96535.25
2019-02-23T18:44:18.512Z,96537.67
2019-02-23T18:46:44.931Z,96532.50
2019-02-23T18:49:11.359Z,96531.92
2019-02-23T18:51:37.966Z,96538.73
2019-02-23T18:54:04.401Z,96543.27
2019-02-23T18:56:30.879Z,96530.60
2019-02-23T18:58:58.394Z,96537.89
2019-02-23T19:01:25.497Z,96545.86
2019-02-23T19:03:52.423Z,96545.55
2019-02-23T19:06:19.477Z,96545.89
2019-02-23T19:08:46.432Z,96548.14
2019-02-23T19:11:13.372Z,96551.75
2019-02-23T19:13:40.429Z,96547.17
2019-02-23T19:16:07.669Z,96552.52
2019-02-23T19:18:34.906Z,96550.75
2019-02-23T19:21:01.923Z,96555.33
2019-02-23T19:23:29.105Z,96557.53
2019-02-23T19:25:56.118Z,96558.52
2019-02-23T19:28:23.171Z,96553.02
2019-02-23T19:30:50.070Z,96561.31
2019-02-23T19:33:17.260Z,96561.17
2019-02-23T19:35:44.396Z,96566.30
2019-02-23T19:38:11.595Z,96575.70
2019-02-23T19:40:38.878Z,96572.19
2019-02-23T19:43:06.400Z,96577.72
2019-02-23T19:45:33.690Z,96583.55
2019-02-23T19:48:00.764Z,96587.46
2019-02-23T19:50:31.154Z,96587.80
2019-02-23T19:52:58.174Z,96584.88
2019-02-23T19:55:27.094Z,96590.39
2019-02-23T19:57:53.834Z,96592.00
2019-02-23T20:00:20.624Z,96592.33
2019-02-23T20:02:47.322Z,96591.04
2019-02-23T20:05:14.821Z,96597.19
2019-02-23T20:07:41.529Z,96594.60
2019-02-23T20:10:09.055Z,96595.58
2019-02-23T20:12:35.543Z,96583.91
2019-02-23T20:15:02.444Z,96590.06
2019-02-23T20:17:28.904Z,96591.05
2019-02-23T20:19:55.417Z,96585.50
2019-02-23T20:22:21.854Z,96584.53
2019-02-23T20:24:48.393Z,96580.97
2019-02-23T20:27:16.012Z,96585.19
2019-02-23T20:29:42.613Z,96588.44
2019-02-23T20:32:09.033Z,96593.62
2019-02-23T20:34:35.572Z,96592.00
2019-02-23T20:37:02.098Z,96595.56
2019-02-23T20:39:28.617Z,96592.33
2019-02-23T20:41:55.077Z,96589.08
2019-02-23T20:44:21.545Z,96591.19
2019-02-23T20:46:47.968Z,96596.22
2019-02-23T20:49:14.390Z,96606.59
2019-02-23T20:51:40.904Z,96601.08
2019-02-23T20:54:07.321Z,96609.52
2019-02-23T20:56:33.978Z,96602.37
2019-02-23T20:59:00.407Z,96612.10
2019-02-23T21:01:26.831Z,96610.80
2019-02-23T21:03:53.337Z,96612.42
2019-02-23T21:06:19.874Z,96620.86
2019-02-23T21:08:46.615Z,96616.97
2019-02-23T21:11:13.125Z,96617.61
2019-02-23T21:13:39.622Z,96612.75
2019-02-23T21:16:06.151Z,96613.05
2019-02-23T21:18:32.591Z,96611.42
2019-02-23T21:20:59.022Z,96613.69
2019-02-23T21:23:25.477Z,96624.06
2019-02-23T21:25:51.996Z,96615.99
2019-02-23T21:28:18.533Z,96622.45
2019-02-23T21:30:44.961Z,96633.13
2019-02-23T21:33:11.487Z,96630.54
2019-02-23T21:35:37.948Z,96633.82
2019-02-23T21:38:04.416Z,96632.27
2019-02-23T21:40:30.836Z,96631.87
2019-02-23T21:42:57.264Z,96628.39
2019-02-23T21:45:23.808Z,96628.55
2019-02-23T21:47:50.227Z,96619.77
2019-02-23T21:50:16.642Z,96625.20
2019-02-23T21:52:43.068Z,96630.07
2019-02-23T21:55:09.510Z,96631.25
2019-02-23T21:57:35.921Z,96634.44
2019-02-23T22:00:03.944Z,96632.75
2019-02-23T22:02:30.371Z,96636.23
2019-02-23T22:04:56.889Z,96631.77
2019-02-23T22:07:23.388Z,96635.31
2019-02-23T22:09:49.842Z,96635.64
2019-02-23T22:12:16.341Z,96639.53
2019-02-23T22:14:42.819Z,96643.53
2019-02-23T22:17:09.312Z,96643.46
2019-02-23T22:19:35.736Z,96642.13
2019-02-23T22:22:02.157Z,96652.28
2019-02-23T22:24:28.592Z,96647.18
2019-02-23T22:26:55.037Z,96653.14
2019-02-23T22:29:21.461Z,96645.29
2019-02-23T22:31:47.882Z,96644.72
2019-02-23T22:34:14.306Z,96640.88
2019-02-23T22:36:40.827Z,96651.80
2019-02-23T22:39:07.331Z,96651.32
2019-02-23T22:41:33.757Z,96649.84
2019-02-23T22:44:00.185Z,96648.22
2019-02-23T22:46:26.662Z,96644.79
2019-02-23T22:48:53.155Z,96650.54
2019-02-23T22:51:19.612Z,96642.02
2019-02-23T22:53:46.051Z,96642.91
2019-02-23T22:56:12.497Z,96644.05
2019-02-23T22:58:38.927Z,96649.59
2019-02-23T23:01:05.542Z,96645.34
2019-02-23T23:03:31.959Z,96643.16
2019-02-23T23:05:58.676Z,96636.66
2019-02-23T23:08:25.173Z,96644.88
2019-02-23T23:10:51.592Z,96649.75
2019-02-23T23:13:18.006Z,96643.25
2019-02-23T23:15:44.476Z,96640.33
2019-02-23T23:18:10.912Z,96642.13
2019-02-23T23:20:37.696Z,96647.25
2019-02-23T23:23:04.211Z,96658.55
2019-02-23T23:25:30.714Z,96658.06
2019-02-23T23:27:57.139Z,96658.67
2019-02-23T23:30:23.585Z,96660.22
2019-02-23T23:32:50.010Z,96656.77
2019-02-23T23:35:16.449Z,96657.13
2019-02-23T23:37:42.885Z,96656.91
2019-02-23T23:40:09.508Z,96652.43
2019-02-23T23:42:35.954Z,96647.33
2019-02-23T23:45:03.496Z,96648.94
2019-02-23T23:47:29.919Z,96650.05
2019-02-23T23:49:56.341Z,96651.23
2019-02-23T23:52:22.808Z,96654.16
2019-02-23T23:54:49.250Z,96649.41
2019-02-23T23:57:15.679Z,96656.72
2019-02-23T23:59:42.105Z,96658.83
